Time;durP1;ratioP1;P1;durP2;ratioP2;P2;SDS_P1;SDS_P2;PMS_P1;PMS_P2;Temp;Humidity;BMP_temperature;BMP_pressure;BME280_temperature;BME280_humidity;BME280_pressure;Samples;Min_cycle;Max_cycle;Signal;HPM_P1;HPM_P2
2020/12/02 00:00:29;;;;;;;48.43;21.77;;;-4.20;89.10;;;;;;4996721;28;20219;-68
2020/12/02 00:03:03;;;;;;;63.47;24.40;;;-4.20;89.10;;;;;;5004550;28;20605;-69
2020/12/02 00:05:31;;;;;;;42.23;21.70;;;-4.20;89.20;;;;;;5025862;28;20381;-68
2020/12/02 00:08:26;;;;;;;53.57;22.67;;;-4.30;89.30;;;;;;4994738;28;20180;-68
2020/12/02 00:10:52;;;;;;;50.13;19.87;;;-4.30;89.40;;;;;;4995543;28;20275;-68
2020/12/02 00:13:30;;;;;;;37.30;20.73;;;-4.30;89.40;;;;;;5007825;28;20192;-68
2020/12/02 00:15:57;;;;;;;47.60;21.00;;;-4.30;89.50;;;;;;5017900;28;20213;-68
2020/12/02 00:18:23;;;;;;;54.40;23.17;;;-4.30;89.40;;;;;;4991444;28;20182;-68
2020/12/02 00:20:49;;;;;;;38.53;20.53;;;-4.40;89.20;;;;;;4984443;28;20759;-68
2020/12/02 00:23:16;;;;;;;59.23;22.37;;;-4.40;89.30;;;;;;4989335;28;20205;-69
2020/12/02 00:25:41;;;;;;;46.43;20.07;;;-4.50;89.40;;;;;;5005185;28;20568;-68
2020/12/02 00:28:10;;;;;;;58.43;22.97;;;-4.50;89.50;;;;;;4994365;28;20205;-69
2020/12/02 00:30:37;;;;;;;37.27;20.50;;;-4.50;89.50;;;;;;4995454;28;20229;-69
2020/12/02 00:33:18;;;;;;;40.73;20.93;;;-4.50;89.80;;;;;;4986474;28;20358;-69
2020/12/02 00:35:44;;;;;;;54.40;21.93;;;-4.50;89.90;;;;;;5006073;28;20493;-67
2020/12/02 00:38:12;;;;;;;48.77;21.17;;;-4.50;89.90;;;;;;4989765;28;20303;-67
2020/12/02 00:40:44;;;;;;;48.67;21.00;;;-4.50;90.00;;;;;;5000125;28;20375;-67
2020/12/02 00:43:14;;;;;;;49.33;21.03;;;-4.50;90.00;;;;;;4988695;28;20265;-67
2020/12/02 00:45:40;;;;;;;42.37;20.50;;;-4.50;90.10;;;;;;4988451;28;20588;-67
2020/12/02 00:48:12;;;;;;;49.07;21.63;;;-4.50;90.10;;;;;;4983343;28;20218;-69
2020/12/02 00:50:38;;;;;;;43.27;20.27;;;-4.50;90.20;;;;;;5000881;28;20213;-67
2020/12/02 00:53:10;;;;;;;43.70;19.30;;;-4.50;90.30;;;;;;5002409;28;20178;-68
2020/12/02 00:55:36;;;;;;;43.33;23.10;;;-4.50;90.30;;;;;;4998766;28;20392;-69
2020/12/02 00:58:05;;;;;;;41.03;19.00;;;-4.50;90.40;;;;;;4992081;28;20276;-67
2020/12/02 01:00:37;;;;;;;46.43;20.07;;;-4.50;90.30;;;;;;5007967;28;20216;-69
2020/12/02 01:03:25;;;;;;;50.37;20.27;;;-4.50;90.20;;;;;;5030368;28;20189;-67
2020/12/02 01:05:53;;;;;;;42.03;18.43;;;-4.50;90.20;;;;;;5029122;28;20313;-68
2020/12/02 01:08:30;;;;;;;49.80;22.50;;;-4.60;90.20;;;;;;5029348;28;20234;-68
2020/12/02 01:11:11;;;;;;;42.03;20.93;;;-4.50;90.30;;;;;;5008327;28;20291;-67
2020/12/02 01:13:38;;;;;;;39.23;21.80;;;-4.50;90.20;;;;;;5007434;28;20649;-70
2020/12/02 01:16:16;;;;;;;51.33;20.57;;;-4.60;90.30;;;;;;4997024;28;20208;-70
2020/12/02 01:18:42;;;;;;;48.43;19.73;;;-4.60;90.40;;;;;;5009022;28;20222;-69
2020/12/02 01:21:14;;;;;;;46.60;19.50;;;-4.60;90.60;;;;;;4995331;28;20292;-67
2020/12/02 01:23:42;;;;;;;49.10;19.90;;;-4.60;90.40;;;;;;4999564;28;20684;-68
2020/12/02 01:26:09;;;;;;;56.87;22.30;;;-4.60;90.50;;;;;;4992461;28;20533;-67
2020/12/02 01:28:37;;;;;;;45.80;19.97;;;-4.60;90.50;;;;;;5004845;28;20200;-67
2020/12/02 01:31:05;;;;;;;29.80;14.73;;;-4.60;90.50;;;;;;4995821;28;20212;-68
2020/12/02 01:33:32;;;;;;;43.57;19.27;;;-4.60;90.50;;;;;;4993285;28;20690;-68
2020/12/02 01:35:57;;;;;;;37.13;18.67;;;-4.60;90.50;;;;;;5006645;28;20209;-67
2020/12/02 01:38:31;;;;;;;46.03;18.23;;;-4.60;90.50;;;;;;4989857;28;20185;-68
2020/12/02 01:40:57;;;;;;;49.37;15.90;;;-4.60;90.60;;;;;;4991419;28;20198;-68
2020/12/02 01:43:23;;;;;;;40.43;17.77;;;-4.60;90.70;;;;;;4994952;28;20192;-69
2020/12/02 01:45:54;;;;;;;44.60;16.93;;;-4.60;90.60;;;;;;5022248;28;20643;-68
2020/12/02 01:48:57;;;;;;;40.90;18.80;;;-4.60;90.70;;;;;;5009769;28;20227;-68
2020/12/02 01:51:37;;;;;;;38.87;16.17;;;-4.60;90.70;;;;;;5010577;28;20593;-68
2020/12/02 01:54:09;;;;;;;33.57;17.50;;;-4.60;90.90;;;;;;4996912;28;20465;-68
2020/12/02 01:56:40;;;;;;;37.80;16.53;;;-4.60;90.90;;;;;;4995102;28;20196;-69
2020/12/02 01:59:51;;;;;;;40.07;18.60;;;-4.60;91.10;;;;;;5001841;28;20679;-69
2020/12/02 02:02:37;;;;;;;37.23;16.73;;;-4.60;91.00;;;;;;5001443;28;20200;-68
2020/12/02 02:05:09;;;;;;;32.37;16.53;;;-4.60;91.20;;;;;;5007221;28;20207;-69
2020/12/02 02:07:37;;;;;;;42.47;17.57;;;-4.70;91.40;;;;;;5000200;28;20575;-69
2020/12/02 02:10:14;;;;;;;34.80;15.80;;;-4.60;91.70;;;;;;5040880;28;20212;-68
2020/12/02 02:12:55;;;;;;;34.70;18.50;;;-4.60;91.80;;;;;;4995491;28;20269;-69
2020/12/02 02:15:39;;;;;;;34.43;17.00;;;-4.60;91.70;;;;;;4995628;28;20622;-69
2020/12/02 02:18:16;;;;;;;35.87;17.00;;;-4.60;91.80;;;;;;5025661;28;20180;-69
2020/12/02 02:20:46;;;;;;;42.87;18.00;;;-4.70;91.60;;;;;;4997115;28;20201;-69
2020/12/02 02:23:14;;;;;;;35.77;18.23;;;-4.70;91.80;;;;;;4996928;28;20574;-68
2020/12/02 02:25:42;;;;;;;38.57;17.47;;;-4.60;91.80;;;;;;5001330;28;20211;-68
2020/12/02 02:28:09;;;;;;;34.73;15.97;;;-4.60;91.70;;;;;;4992567;28;20201;-68
2020/12/02 02:30:35;;;;;;;30.70;16.50;;;-4.60;91.70;;;;;;4997966;28;20236;-68
2020/12/02 02:33:01;;;;;;;45.43;18.10;;;-4.60;91.60;;;;;;4994004;28;20216;-68
2020/12/02 02:35:27;;;;;;;35.70;16.60;;;-4.60;91.70;;;;;;5008782;28;20357;-68
2020/12/02 02:37:53;;;;;;;40.23;15.33;;;-4.60;91.60;;;;;;5004403;28;20503;-69
2020/12/02 02:40:18;;;;;;;52.03;18.63;;;-4.60;91.60;;;;;;5008512;28;20219;-68
2020/12/02 02:42:50;;;;;;;36.80;16.87;;;-4.60;91.60;;;;;;4995812;28;20375;-69
2020/12/02 02:45:25;;;;;;;43.83;17.53;;;-4.60;91.60;;;;;;5000211;28;20528;-68
2020/12/02 02:47:56;;;;;;;33.60;14.80;;;-4.60;91.70;;;;;;4997715;28;20247;-68
2020/12/02 02:50:24;;;;;;;25.53;14.57;;;-4.60;91.80;;;;;;5003339;28;20208;-68
2020/12/02 02:52:50;;;;;;;32.83;15.70;;;-4.60;92.00;;;;;;4996319;28;20205;-68
2020/12/02 02:55:19;;;;;;;38.53;16.77;;;-4.50;92.00;;;;;;4999775;28;20196;-68
2020/12/02 02:57:45;;;;;;;28.70;15.40;;;-4.50;92.10;;;;;;4994469;28;20616;-68
2020/12/02 03:00:24;;;;;;;32.97;15.37;;;-4.50;92.10;;;;;;5003779;28;20189;-68
2020/12/02 03:02:50;;;;;;;33.77;15.90;;;-4.50;92.00;;;;;;4992557;28;20188;-69
2020/12/02 03:05:16;;;;;;;36.73;15.03;;;-4.40;92.00;;;;;;4991728;28;20200;-68
2020/12/02 03:07:43;;;;;;;33.03;15.87;;;-4.50;91.80;;;;;;4994454;28;20209;-68
2020/12/02 03:10:14;;;;;;;33.93;15.60;;;-4.50;91.90;;;;;;4988234;28;20203;-68
2020/12/02 03:12:40;;;;;;;36.13;16.57;;;-4.50;91.80;;;;;;4988680;28;20170;-68
2020/12/02 03:15:08;;;;;;;37.80;17.90;;;-4.50;91.80;;;;;;4993404;28;20208;-68
2020/12/02 03:17:34;;;;;;;41.80;18.47;;;-4.50;91.70;;;;;;4998177;28;20513;-68
2020/12/02 03:20:07;;;;;;;41.17;18.33;;;-4.50;91.70;;;;;;5002707;28;20850;-68
2020/12/02 03:22:34;;;;;;;24.07;15.17;;;-4.50;91.70;;;;;;4990148;28;20244;-68
2020/12/02 03:25:00;;;;;;;34.67;16.27;;;-4.50;91.60;;;;;;5006231;28;20259;-68
2020/12/02 03:27:26;;;;;;;39.40;16.27;;;-4.50;91.70;;;;;;4999984;28;20243;-68
2020/12/02 03:29:52;;;;;;;30.87;14.20;;;-4.50;91.60;;;;;;5007186;28;20525;-70
2020/12/02 03:32:18;;;;;;;28.90;16.50;;;-4.40;91.80;;;;;;5008042;28;20180;-69
2020/12/02 03:34:44;;;;;;;33.23;14.97;;;-4.40;91.90;;;;;;5006254;28;20212;-69
2020/12/02 03:37:10;;;;;;;42.50;16.47;;;-4.40;91.80;;;;;;5000221;28;20635;-68
2020/12/02 03:39:36;;;;;;;28.13;14.80;;;-4.40;91.90;;;;;;5004468;28;20213;-69
2020/12/02 03:42:02;;;;;;;30.03;14.37;;;-4.40;91.90;;;;;;4999417;28;20208;-68
2020/12/02 03:44:28;;;;;;;23.00;13.60;;;-4.40;91.90;;;;;;4996398;28;20177;-69
2020/12/02 03:46:53;;;;;;;37.77;13.50;;;-4.40;91.70;;;;;;5037375;28;20620;-68
2020/12/02 03:49:19;;;;;;;32.83;15.87;;;-4.40;91.70;;;;;;5003290;28;20193;-68
2020/12/02 03:51:45;;;;;;;32.27;13.27;;;-4.40;91.70;;;;;;4999382;28;20203;-68
2020/12/02 03:54:10;;;;;;;29.10;15.13;;;-4.50;91.60;;;;;;4998131;28;20574;-68
2020/12/02 03:56:36;;;;;;;34.47;13.10;;;-4.50;91.50;;;;;;4989323;28;20209;-68
2020/12/02 03:59:02;;;;;;;30.00;15.47;;;-4.50;91.60;;;;;;5035254;28;20185;-69
2020/12/02 04:01:28;;;;;;;29.70;16.50;;;-4.50;91.60;;;;;;4999281;28;20197;-68
2020/12/02 04:03:54;;;;;;;29.07;14.63;;;-4.50;91.50;;;;;;4988118;28;20657;-68
2020/12/02 04:06:19;;;;;;;29.17;14.10;;;-4.50;91.50;;;;;;4998942;28;20378;-68
2020/12/02 04:08:45;;;;;;;40.30;19.17;;;-4.50;91.50;;;;;;5001974;28;20271;-68
2020/12/02 04:11:13;;;;;;;38.53;15.77;;;-4.50;91.30;;;;;;4987968;28;20284;-68
2020/12/02 04:13:39;;;;;;;26.77;15.40;;;-4.50;91.30;;;;;;4997920;28;20177;-69
2020/12/02 04:16:05;;;;;;;30.70;14.43;;;-4.50;91.50;;;;;;5000244;28;20293;-69
2020/12/02 04:18:31;;;;;;;38.67;15.93;;;-4.60;91.40;;;;;;4998506;28;20197;-69
2020/12/02 04:20:57;;;;;;;39.97;15.73;;;-4.60;91.40;;;;;;4997469;28;20215;-68
2020/12/02 04:23:23;;;;;;;27.73;14.77;;;-4.60;91.30;;;;;;5006979;28;20674;-68
2020/12/02 04:25:49;;;;;;;29.63;16.23;;;-4.60;91.40;;;;;;4999932;28;20238;-68
2020/12/02 04:28:15;;;;;;;33.30;15.13;;;-4.60;91.20;;;;;;4988020;28;20225;-68
2020/12/02 04:30:43;;;;;;;29.43;14.93;;;-4.60;91.20;;;;;;5001160;28;20218;-68
2020/12/02 04:33:10;;;;;;;30.90;14.03;;;-4.60;91.20;;;;;;4993768;28;20653;-68
2020/12/02 04:35:36;;;;;;;27.50;14.70;;;-4.60;91.30;;;;;;4997643;28;20192;-69
2020/12/02 04:38:01;;;;;;;24.83;13.47;;;-4.60;91.30;;;;;;4998237;28;20186;-68
2020/12/02 04:40:36;;;;;;;29.13;13.77;;;-4.70;91.30;;;;;;5006292;28;20211;-68
2020/12/02 04:43:26;;;;;;;27.97;15.17;;;-4.70;91.30;;;;;;5005131;28;20195;-68
2020/12/02 04:45:54;;;;;;;33.80;14.07;;;-4.70;91.40;;;;;;4999045;28;20672;-68
2020/12/02 04:48:25;;;;;;;32.23;14.80;;;-4.70;91.40;;;;;;5019480;28;20181;-70
2020/12/02 04:50:56;;;;;;;24.87;13.63;;;-4.70;91.30;;;;;;5001539;28;20285;-68
2020/12/02 04:53:23;;;;;;;26.23;13.83;;;-4.70;91.30;;;;;;5010851;28;20286;-69
2020/12/02 04:55:54;;;;;;;31.67;14.83;;;-4.70;91.30;;;;;;5010553;28;20189;-70
2020/12/02 04:58:34;;;;;;;41.03;13.67;;;-4.70;91.30;;;;;;5008522;28;20584;-70
2020/12/02 05:01:14;;;;;;;24.97;14.80;;;-4.70;91.30;;;;;;5010024;28;20211;-70
2020/12/02 05:03:53;;;;;;;26.60;12.60;;;-4.80;91.40;;;;;;5002748;28;20260;-70
2020/12/02 05:06:37;;;;;;;20.77;9.87;;;-4.80;91.40;;;;;;5009110;28;20200;-69
2020/12/02 05:09:25;;;;;;;23.17;13.47;;;-4.80;91.30;;;;;;5009296;28;20191;-69
2020/12/02 05:11:59;;;;;;;35.73;13.33;;;-4.80;91.30;;;;;;5031733;28;20212;-69
2020/12/02 05:14:38;;;;;;;26.50;14.80;;;-4.80;91.40;;;;;;5010850;28;20184;-70
2020/12/02 05:17:24;;;;;;;17.27;10.70;;;-4.80;91.30;;;;;;5010223;28;20206;-69
2020/12/02 05:20:13;;;;;;;21.87;11.63;;;-4.80;91.30;;;;;;5009331;28;20617;-69
2020/12/02 05:22:45;;;;;;;23.77;11.80;;;-4.80;91.30;;;;;;5010216;28;20203;-69
2020/12/02 05:25:33;;;;;;;26.63;12.47;;;-4.80;91.30;;;;;;5010213;28;20264;-69
2020/12/02 05:28:02;;;;;;;22.07;12.53;;;-4.80;91.40;;;;;;5010437;28;20247;-70
2020/12/02 05:30:37;;;;;;;31.03;12.87;;;-4.80;91.40;;;;;;5010186;28;20209;-70
2020/12/02 05:33:12;;;;;;;25.70;13.60;;;-4.80;91.40;;;;;;5010060;28;20249;-69
2020/12/02 05:35:48;;;;;;;24.30;12.10;;;-4.80;91.50;;;;;;5007197;28;20199;-70
2020/12/02 05:38:31;;;;;;;27.10;11.10;;;-4.80;91.40;;;;;;5008667;28;20179;-70
2020/12/02 05:40:59;;;;;;;23.07;12.53;;;-4.80;91.40;;;;;;5006974;28;20292;-70
2020/12/02 05:43:38;;;;;;;40.80;14.07;;;-4.80;91.60;;;;;;5006365;28;20712;-70
2020/12/02 05:46:11;;;;;;;30.03;13.43;;;-4.80;91.60;;;;;;5008613;28;20316;-70
2020/12/02 05:48:41;;;;;;;23.10;12.20;;;-4.80;91.60;;;;;;5010260;28;20192;-70
2020/12/02 05:51:15;;;;;;;20.03;9.90;;;-4.80;91.70;;;;;;5009548;28;20223;-70
2020/12/02 05:54:11;;;;;;;37.03;11.97;;;-4.80;91.70;;;;;;5009505;28;20204;-70
2020/12/02 05:56:38;;;;;;;32.00;12.03;;;-4.80;91.80;;;;;;5009049;28;20207;-70
2020/12/02 05:59:05;;;;;;;37.60;13.73;;;-4.80;92.00;;;;;;5009594;28;20191;-69
2020/12/02 06:01:31;;;;;;;26.53;14.83;;;-4.70;92.00;;;;;;5040705;28;20204;-69
2020/12/02 06:03:58;;;;;;;24.73;11.63;;;-4.70;92.00;;;;;;5008379;28;20706;-70
2020/12/02 06:06:26;;;;;;;21.17;11.70;;;-4.70;92.10;;;;;;5008224;28;20234;-69
2020/12/02 06:08:51;;;;;;;26.13;13.50;;;-4.70;92.10;;;;;;5007872;28;20180;-70
2020/12/02 06:11:17;;;;;;;33.43;15.77;;;-4.60;92.20;;;;;;5008355;28;20601;-70
2020/12/02 06:13:44;;;;;;;24.17;13.17;;;-4.60;92.60;;;;;;5007533;28;20192;-70
2020/12/02 06:16:15;;;;;;;27.97;13.93;;;-4.50;92.50;;;;;;5008741;28;20193;-69
2020/12/02 06:18:41;;;;;;;23.07;13.20;;;-4.40;92.60;;;;;;5008635;28;20177;-69
2020/12/02 06:21:19;;;;;;;25.90;14.13;;;-4.30;92.70;;;;;;5003992;28;20228;-70
2020/12/02 06:23:51;;;;;;;34.13;13.97;;;-4.10;92.90;;;;;;4989282;28;20172;-70
2020/12/02 06:26:45;;;;;;;22.27;13.03;;;-4.00;93.10;;;;;;4990866;28;20205;-70
2020/12/02 06:29:28;;;;;;;34.07;14.03;;;-3.70;93.20;;;;;;5008939;28;20600;-69
2020/12/02 06:32:20;;;;;;;40.77;15.90;;;-3.40;93.00;;;;;;5008683;28;20213;-69
2020/12/02 06:34:48;;;;;;;38.93;15.00;;;-3.10;92.70;;;;;;5008305;28;20256;-69
2020/12/02 06:37:17;;;;;;;34.00;15.73;;;-2.80;92.60;;;;;;5000805;28;20271;-70
2020/12/02 06:39:57;;;;;;;28.83;14.93;;;-2.50;92.00;;;;;;5008456;28;20182;-70
2020/12/02 06:42:32;;;;;;;33.37;17.33;;;-2.20;91.40;;;;;;5008845;28;20510;-70
2020/12/02 06:45:16;;;;;;;34.60;18.47;;;-1.80;91.20;;;;;;5008384;28;20644;-70
2020/12/02 06:48:04;;;;;;;31.40;17.30;;;-1.40;90.90;;;;;;5006994;28;20177;-70
2020/12/02 06:50:34;;;;;;;39.30;19.87;;;-0.90;90.00;;;;;;4999203;28;20664;-70
2020/12/02 06:53:11;;;;;;;47.47;20.33;;;-0.60;87.90;;;;;;4990804;28;20350;-69
2020/12/02 06:55:38;;;;;;;42.83;20.70;;;-0.30;85.90;;;;;;5006956;28;20224;-69
2020/12/02 06:58:12;;;;;;;40.93;19.30;;;-0.10;84.60;;;;;;5008324;28;20176;-70
2020/12/02 07:00:45;;;;;;;48.47;21.07;;;0.20;85.30;;;;;;5007862;28;20197;-68
2020/12/02 07:03:37;;;;;;;50.07;22.77;;;0.40;82.90;;;;;;5008192;28;20173;-69
2020/12/02 07:06:29;;;;;;;65.87;25.90;;;0.70;82.00;;;;;;5008290;28;20751;-69
2020/12/02 07:09:03;;;;;;;52.93;25.57;;;1.10;83.10;;;;;;5007708;28;20231;-68
2020/12/02 07:11:31;;;;;;;59.33;24.93;;;1.30;81.60;;;;;;5007145;28;20557;-68
2020/12/02 07:14:27;;;;;;;44.70;23.20;;;1.60;80.40;;;;;;5007503;28;20181;-68
2020/12/02 07:16:58;;;;;;;45.80;22.37;;;1.90;79.60;;;;;;5005520;28;20251;-68
2020/12/02 07:19:30;;;;;;;42.90;22.33;;;2.20;78.70;;;;;;5008281;28;20194;-68
2020/12/02 07:22:12;;;;;;;60.50;25.53;;;2.50;78.30;;;;;;5006015;28;20207;-68
2020/12/02 07:24:45;;;;;;;48.37;25.00;;;2.60;75.00;;;;;;5001551;28;20603;-68
2020/12/02 07:27:11;;;;;;;48.03;24.53;;;2.90;76.10;;;;;;5007434;28;20193;-68
2020/12/02 07:29:37;;;;;;;47.63;23.33;;;3.10;75.30;;;;;;5007622;28;20207;-68
2020/12/02 07:32:14;;;;;;;58.97;28.13;;;3.40;75.10;;;;;;5005009;28;20233;-68
2020/12/02 07:34:40;;;;;;;46.23;23.83;;;3.60;74.10;;;;;;5005186;28;20607;-68
2020/12/02 07:37:20;;;;;;;56.70;25.30;;;3.80;73.80;;;;;;5006750;28;20284;-68
2020/12/02 07:39:55;;;;;;;50.53;24.93;;;3.90;73.40;;;;;;5019448;28;20191;-70
2020/12/02 07:42:24;;;;;;;53.43;24.80;;;4.00;72.80;;;;;;5005218;28;20177;-69
2020/12/02 07:45:04;;;;;;;51.93;24.57;;;4.30;72.20;;;;;;5005710;28;20197;-69
2020/12/02 07:47:31;;;;;;;48.07;24.80;;;4.60;72.60;;;;;;5007870;28;20508;-69
2020/12/02 07:50:06;;;;;;;44.20;19.90;;;4.90;72.00;;;;;;5005026;28;20212;-68
2020/12/02 07:52:40;;;;;;;33.63;18.97;;;5.10;71.10;;;;;;5005884;28;20184;-68
2020/12/02 07:55:07;;;;;;;33.20;18.87;;;5.10;71.30;;;;;;4999479;28;20190;-68
2020/12/02 07:57:34;;;;;;;38.00;19.10;;;5.10;70.20;;;;;;5000012;28;20190;-69
2020/12/02 08:00:25;;;;;;;43.73;19.87;;;5.30;71.20;;;;;;5009238;28;20283;-69
2020/12/02 08:02:53;;;;;;;38.80;20.47;;;5.80;71.10;;;;;;5004815;28;20435;-70
2020/12/02 08:05:37;;;;;;;35.20;21.07;;;6.20;70.40;;;;;;5005417;28;20263;-68
2020/12/02 08:08:04;;;;;;;38.00;19.67;;;6.70;69.90;;;;;;5006723;28;20722;-69
2020/12/02 08:10:33;;;;;;;36.17;20.27;;;7.10;68.60;;;;;;5005169;28;20554;-68
2020/12/02 08:13:03;;;;;;;39.47;21.33;;;7.50;68.80;;;;;;5006140;28;20185;-69
2020/12/02 08:15:28;;;;;;;36.73;20.97;;;7.90;66.80;;;;;;5007080;28;20205;-68
2020/12/02 08:18:11;;;;;;;33.53;19.47;;;8.30;65.60;;;;;;5005537;28;20242;-69
2020/12/02 08:20:37;;;;;;;32.37;18.80;;;8.40;64.50;;;;;;5005211;28;20216;-68
2020/12/02 08:23:26;;;;;;;37.90;20.57;;;8.50;64.40;;;;;;5003438;28;20199;-67
2020/12/02 08:25:57;;;;;;;32.40;19.10;;;8.80;64.20;;;;;;5007965;28;20208;-67
2020/12/02 08:28:27;;;;;;;36.30;20.57;;;8.70;63.40;;;;;;5010857;28;20204;-68
2020/12/02 08:31:21;;;;;;;28.57;18.27;;;8.70;63.90;;;;;;5005350;28;20302;-67
2020/12/02 08:34:08;;;;;;;30.17;18.20;;;9.00;63.50;;;;;;5001995;28;20180;-67
2020/12/02 08:36:35;;;;;;;32.57;18.97;;;8.90;62.90;;;;;;5006885;28;20201;-67
2020/12/02 08:39:01;;;;;;;34.40;19.63;;;9.10;63.20;;;;;;5006492;28;20185;-68
2020/12/02 08:41:27;;;;;;;36.23;20.07;;;9.20;62.60;;;;;;4996282;28;20287;-67
2020/12/02 08:44:14;;;;;;;33.17;19.30;;;9.50;63.10;;;;;;4985613;28;20193;-68
2020/12/02 08:46:51;;;;;;;32.80;19.00;;;9.80;61.50;;;;;;4983267;28;20202;-67
2020/12/02 08:49:30;;;;;;;32.93;18.77;;;10.10;61.30;;;;;;4985910;28;20181;-68
2020/12/02 08:51:56;;;;;;;34.97;20.17;;;10.20;61.20;;;;;;4987644;28;20635;-67
2020/12/02 08:54:24;;;;;;;33.57;19.37;;;10.30;61.10;;;;;;4986915;28;20189;-68
2020/12/02 08:56:53;;;;;;;36.87;21.77;;;10.30;60.10;;;;;;4973359;28;20682;-68
2020/12/02 08:59:19;;;;;;;30.37;17.97;;;10.60;60.80;;;;;;5005679;28;20269;-67
2020/12/02 09:01:45;;;;;;;32.05;20.35;;;11.00;60.10;;;;;;5006392;28;20209;-67
2020/12/02 09:04:10;;;;;;;34.25;21.48;;;11.30;60.00;;;;;;4995319;28;20268;-67
2020/12/02 09:06:36;;;;;;;37.78;21.45;;;11.50;58.40;;;;;;4998382;28;20200;-68
2020/12/02 09:09:04;;;;;;;32.78;21.00;;;11.60;59.00;;;;;;5005014;28;20189;-67
2020/12/02 09:11:33;;;;;;;34.80;20.77;;;11.80;58.40;;;;;;5008346;28;20291;-67
2020/12/02 09:13:59;;;;;;;36.90;21.65;;;12.10;57.80;;;;;;5009498;28;20189;-67
2020/12/02 09:16:37;;;;;;;35.97;21.10;;;12.30;58.10;;;;;;5004281;28;20364;-67
2020/12/02 09:19:05;;;;;;;36.55;21.70;;;12.40;56.40;;;;;;5007031;28;20188;-68
2020/12/02 09:21:31;;;;;;;36.08;21.92;;;12.60;57.50;;;;;;5006816;28;20201;-68
2020/12/02 09:23:59;;;;;;;36.08;21.60;;;12.50;56.70;;;;;;5011442;28;20526;-68
2020/12/02 09:26:28;;;;;;;33.80;21.42;;;12.50;56.00;;;;;;5024766;28;20661;-68
2020/12/02 09:28:55;;;;;;;35.40;22.65;;;12.40;57.40;;;;;;5004972;28;20280;-69
2020/12/02 09:31:23;;;;;;;32.70;21.15;;;12.10;56.20;;;;;;4999090;28;20224;-69
2020/12/02 09:33:49;;;;;;;35.92;21.42;;;12.10;57.30;;;;;;5005181;28;20229;-68
2020/12/02 09:36:16;;;;;;;30.95;20.20;;;12.40;57.70;;;;;;5036437;28;20201;-69
2020/12/02 09:38:44;;;;;;;36.45;20.95;;;12.80;57.10;;;;;;5005561;28;20177;-69
2020/12/02 09:41:33;;;;;;;37.55;21.38;;;12.90;56.60;;;;;;5005522;28;20204;-68
2020/12/02 09:44:28;;;;;;;35.35;20.70;;;12.90;56.10;;;;;;5001924;28;20197;-68
2020/12/02 09:47:07;;;;;;;32.47;20.80;;;12.70;55.90;;;;;;5007120;28;20209;-68
2020/12/02 09:49:33;;;;;;;31.88;20.33;;;12.70;55.80;;;;;;5015786;28;20284;-68
2020/12/02 09:52:30;;;;;;;28.25;18.80;;;12.70;56.70;;;;;;5009217;28;20653;-68
2020/12/02 09:54:58;;;;;;;33.63;19.60;;;12.90;56.90;;;;;;5002063;28;20186;-70
2020/12/02 09:57:28;;;;;;;35.03;20.33;;;13.30;57.10;;;;;;5017481;28;20244;-70
2020/12/02 09:59:55;;;;;;;27.67;19.48;;;13.30;56.30;;;;;;5008089;28;20247;-69
2020/12/02 10:02:36;;;;;;;30.25;19.17;;;13.40;55.90;;;;;;5002205;28;20484;-69
2020/12/02 10:05:26;;;;;;;27.77;18.15;;;13.50;56.90;;;;;;5023822;28;20215;-69
2020/12/02 10:08:30;;;;;;;26.73;18.05;;;14.00;55.00;;;;;;5015689;28;20181;-70
2020/12/02 10:11:02;;;;;;;25.75;18.10;;;14.50;56.00;;;;;;5005530;28;20250;-69
2020/12/02 10:13:37;;;;;;;34.95;20.95;;;14.60;54.90;;;;;;4984913;28;20177;-69
2020/12/02 10:16:18;;;;;;;31.98;21.23;;;14.50;54.40;;;;;;4984676;28;20508;-69
2020/12/02 10:18:59;;;;;;;31.05;20.38;;;14.30;54.70;;;;;;4983711;28;20196;-68
2020/12/02 10:21:37;;;;;;;35.88;21.92;;;14.30;56.20;;;;;;4980405;28;20454;-69
2020/12/02 10:24:45;;;;;;;28.70;19.63;;;14.60;54.20;;;;;;4982236;28;20192;-66
2020/12/02 10:27:36;;;;;;;33.47;21.50;;;15.00;54.70;;;;;;4986669;28;20282;-66
2020/12/02 10:30:19;;;;;;;30.70;19.45;;;15.40;55.00;;;;;;5019462;28;20555;-68
2020/12/02 10:33:14;;;;;;;37.25;24.83;;;15.70;53.60;;;;;;5020218;28;20275;-67
2020/12/02 10:35:42;;;;;;;39.50;23.85;;;16.00;53.80;;;;;;5021348;28;20322;-65
2020/12/02 10:38:43;;;;;;;37.45;22.85;;;16.10;52.70;;;;;;5021840;28;20212;-66
2020/12/02 10:41:48;;;;;;;34.97;21.83;;;16.10;52.20;;;;;;4947104;29;21145;-66
2020/12/02 10:44:39;;;;;;;33.38;21.65;;;15.80;53.60;;;;;;4907739;29;20339;-68
2020/12/02 10:47:37;;;;;;;31.50;20.77;;;15.70;53.50;;;;;;4905435;29;20327;-67
2020/12/02 10:50:05;;;;;;;32.60;21.23;;;15.40;52.90;;;;;;4907620;29;20307;-67
2020/12/02 10:52:31;;;;;;;32.00;20.15;;;15.60;53.40;;;;;;4906832;29;20216;-67
2020/12/02 10:54:57;;;;;;;36.65;21.60;;;15.80;53.80;;;;;;4882588;29;20312;-67
2020/12/02 10:57:24;;;;;;;35.25;21.20;;;16.00;53.40;;;;;;4898898;29;20193;-66
2020/12/02 10:59:59;;;;;;;34.22;20.80;;;16.30;54.10;;;;;;4889930;29;20285;-67
2020/12/02 11:02:30;;;;;;;31.92;20.60;;;16.60;52.60;;;;;;4888447;29;20194;-67
2020/12/02 11:04:57;;;;;;;32.30;20.60;;;16.80;53.50;;;;;;4895276;29;20213;-67
2020/12/02 11:07:42;;;;;;;35.47;22.70;;;17.00;51.80;;;;;;4888083;29;20276;-69
2020/12/02 11:10:23;;;;;;;40.55;22.73;;;17.20;53.30;;;;;;4870206;29;20219;-68
2020/12/02 11:13:10;;;;;;;35.63;22.50;;;17.40;52.90;;;;;;4885790;29;20411;-68
2020/12/02 11:16:00;;;;;;;36.65;22.70;;;17.40;51.90;;;;;;4882247;29;20607;-68
2020/12/02 11:18:53;;;;;;;39.78;24.80;;;17.60;51.70;;;;;;4907937;29;20534;-68
2020/12/02 11:21:44;;;;;;;32.55;21.08;;;17.60;52.20;;;;;;4980330;28;20216;-68
2020/12/02 11:24:40;;;;;;;35.17;21.95;;;17.70;51.20;;;;;;5002663;28;20201;-69
2020/12/02 11:27:06;;;;;;;31.20;19.63;;;17.70;52.50;;;;;;4997656;28;20200;-69
2020/12/02 11:29:32;;;;;;;32.53;20.88;;;17.80;51.90;;;;;;5007807;28;20649;-69
2020/12/02 11:31:58;;;;;;;31.70;20.80;;;17.90;52.20;;;;;;4997870;28;20201;-70
2020/12/02 11:34:32;;;;;;;33.92;20.13;;;18.00;51.70;;;;;;5001784;28;20187;-71
2020/12/02 11:37:37;;;;;;;25.98;16.70;;;18.00;51.30;;;;;;5002265;28;20274;-69
2020/12/02 11:40:16;;;;;;;29.60;17.63;;;17.80;50.70;;;;;;5042288;28;20199;-70
2020/12/02 11:43:12;;;;;;;23.98;15.30;;;17.50;52.00;;;;;;5043114;28;20195;-69
2020/12/02 11:45:40;;;;;;;17.73;12.55;;;17.30;51.10;;;;;;5028589;28;20211;-69
2020/12/02 11:48:35;;;;;;;16.95;10.88;;;17.20;52.60;;;;;;5042256;28;20179;-69
2020/12/02 11:51:09;;;;;;;16.67;11.27;;;16.90;52.20;;;;;;5030335;28;20311;-71
2020/12/02 11:53:41;;;;;;;20.25;11.93;;;16.60;52.50;;;;;;5026402;28;20214;-70
2020/12/02 11:56:29;;;;;;;19.23;11.30;;;16.40;53.80;;;;;;5036524;28;20207;-70
2020/12/02 11:58:59;;;;;;;15.60;10.85;;;16.20;52.90;;;;;;4969735;28;20190;-70
2020/12/02 12:01:50;;;;;;;18.35;12.02;;;16.10;53.10;;;;;;4962767;28;20542;-67
2020/12/02 12:04:34;;;;;;;14.70;10.57;;;16.10;53.30;;;;;;4989671;28;20631;-67
2020/12/02 12:07:26;;;;;;;16.00;10.75;;;16.20;53.40;;;;;;4971123;28;20201;-67
2020/12/02 12:10:17;;;;;;;16.77;10.93;;;16.20;53.00;;;;;;4987854;28;20190;-67
2020/12/02 12:13:01;;;;;;;20.50;12.48;;;16.20;53.60;;;;;;4987836;28;20182;-67
2020/12/02 12:15:32;;;;;;;18.50;11.70;;;16.10;52.90;;;;;;4970699;28;20664;-67
2020/12/02 12:18:12;;;;;;;16.15;11.10;;;15.90;54.40;;;;;;4948669;29;20175;-67
2020/12/02 12:20:42;;;;;;;16.40;11.40;;;15.70;54.50;;;;;;4949795;28;20191;-67
2020/12/02 12:23:07;;;;;;;18.80;11.25;;;15.60;53.90;;;;;;4934621;29;20195;-67
2020/12/02 12:25:35;;;;;;;19.15;11.32;;;15.40;53.70;;;;;;4951314;28;20592;-66
2020/12/02 12:28:18;;;;;;;16.88;11.07;;;15.40;54.80;;;;;;4960655;28;20211;-66
2020/12/02 12:30:44;;;;;;;18.15;11.52;;;15.50;54.60;;;;;;4950178;28;20273;-67
2020/12/02 12:33:36;;;;;;;18.58;10.90;;;15.40;54.50;;;;;;4949894;29;20620;-67
2020/12/02 12:36:11;;;;;;;14.45;10.77;;;15.50;54.90;;;;;;4959528;28;20236;-67
2020/12/02 12:39:00;;;;;;;16.13;12.10;;;15.60;54.00;;;;;;4990187;28;20623;-67
2020/12/02 12:41:50;;;;;;;14.75;11.73;;;15.50;54.20;;;;;;4991194;28;20197;-67
2020/12/02 12:44:25;;;;;;;15.15;11.73;;;15.40;54.50;;;;;;4998418;28;20181;-67
2020/12/02 12:47:09;;;;;;;16.02;11.10;;;15.30;54.60;;;;;;5010941;28;20196;-66
2020/12/02 12:49:35;;;;;;;15.75;10.77;;;15.30;54.80;;;;;;5010847;28;20620;-67
2020/12/02 12:52:03;;;;;;;17.42;11.43;;;15.40;54.40;;;;;;5006427;28;20263;-67
2020/12/02 12:54:29;;;;;;;19.45;13.15;;;15.40;54.70;;;;;;5007759;28;20180;-67
2020/12/02 12:56:56;;;;;;;15.15;11.48;;;15.40;54.40;;;;;;5009763;28;20531;-67
2020/12/02 12:59:24;;;;;;;15.57;11.82;;;15.40;54.40;;;;;;5010578;28;20165;-67
2020/12/02 13:01:52;;;;;;;19.15;11.80;;;15.40;55.10;;;;;;5010367;28;20532;-67